sensor_id;sensor_type;location;lat;lon;timestamp;pressure;altitude;pressure_sealevel;temperature;humidity
24825;BME280;12910;57.690;11.974;2022-08-21T00:01:42;100477.19;;;17.06;100.00
24825;BME280;12910;57.690;11.974;2022-08-21T00:04:08;100483.19;;;17.10;100.00
24825;BME280;12910;57.690;11.974;2022-08-21T00:06:34;100490.91;;;17.13;100.00
24825;BME280;12910;57.690;11.974;2022-08-21T00:09:00;100485.75;;;17.11;100.00
24825;BME280;12910;57.690;11.974;2022-08-21T00:11:26;100477.97;;;17.11;100.00
24825;BME280;12910;57.690;11.974;2022-08-21T00:13:52;100484.91;;;17.09;100.00
24825;BME280;12910;57.690;11.974;2022-08-21T00:16:18;100473.75;;;17.03;100.00
24825;BME280;12910;57.690;11.974;2022-08-21T00:18:43;100481.47;;;17.07;100.00
24825;BME280;12910;57.690;11.974;2022-08-21T00:21:11;100480.59;;;17.08;100.00
24825;BME280;12910;57.690;11.974;2022-08-21T00:23:37;100470.31;;;17.04;100.00
24825;BME280;12910;57.690;11.974;2022-08-21T00:26:02;100468.66;;;17.00;100.00
24825;BME280;12910;57.690;11.974;2022-08-21T00:28:28;100473.75;;;17.04;100.00
24825;BME280;12910;57.690;11.974;2022-08-21T00:30:53;100473.78;;;17.01;100.00
24825;BME280;12910;57.690;11.974;2022-08-21T00:33:19;100469.53;;;16.98;100.00
24825;BME280;12910;57.690;11.974;2022-08-21T00:35:44;100470.41;;;16.96;100.00
24825;BME280;12910;57.690;11.974;2022-08-21T00:38:10;100469.53;;;16.98;100.00
24825;BME280;12910;57.690;11.974;2022-08-21T00:40:42;100466.06;;;16.98;100.00
24825;BME280;12910;57.690;11.974;2022-08-21T00:43:10;100468.66;;;17.00;100.00
24825;BME280;12910;57.690;11.974;2022-08-21T00:45:37;100469.56;;;16.97;100.00
24825;BME280;12910;57.690;11.974;2022-08-21T00:48:03;100467.84;;;16.96;100.00
24825;BME280;12910;57.690;11.974;2022-08-21T00:50:31;100464.41;;;16.94;100.00
24825;BME280;12910;57.690;11.974;2022-08-21T00:52:58;100465.25;;;16.96;100.00
24825;BME280;12910;57.690;11.974;2022-08-21T00:55:24;100464.41;;;16.94;100.00
24825;BME280;12910;57.690;11.974;2022-08-21T00:57:54;100464.41;;;16.94;100.00
24825;BME280;12910;57.690;11.974;2022-08-21T01:00:26;100456.63;;;16.92;100.00
24825;BME280;12910;57.690;11.974;2022-08-21T01:02:54;100463.53;;;16.93;100.00
24825;BME280;12910;57.690;11.974;2022-08-21T01:05:19;100457.47;;;16.94;100.00
24825;BME280;12910;57.690;11.974;2022-08-21T01:07:45;100462.66;;;16.93;100.00
24825;BME280;12910;57.690;11.974;2022-08-21T01:10:11;100468.72;;;16.95;100.00
24825;BME280;12910;57.690;11.974;2022-08-21T01:12:37;100473.00;;;16.93;100.00
24825;BME280;12910;57.690;11.974;2022-08-21T01:15:06;100471.31;;;16.89;100.00
24825;BME280;12910;57.690;11.974;2022-08-21T01:17:33;100470.44;;;16.90;100.00
24825;BME280;12910;57.690;11.974;2022-08-21T01:20:00;100448.13;;;16.81;100.00
24825;BME280;12910;57.690;11.974;2022-08-21T01:22:28;100452.41;;;16.83;100.00
24825;BME280;12910;57.690;11.974;2022-08-21T01:24:54;100461.88;;;16.86;100.00
24825;BME280;12910;57.690;11.974;2022-08-21T01:27:19;100459.34;;;16.81;100.00
24825;BME280;12910;57.690;11.974;2022-08-21T01:29:59;100471.31;;;16.89;100.00
24825;BME280;12910;57.690;11.974;2022-08-21T01:32:26;100451.59;;;16.80;100.00
24825;BME280;12910;57.690;11.974;2022-08-21T01:34:52;100468.78;;;16.86;100.00
24825;BME280;12910;57.690;11.974;2022-08-21T01:37:20;100453.25;;;16.84;100.00
24825;BME280;12910;57.690;11.974;2022-08-21T01:39:47;100455.84;;;16.84;100.00
24825;BME280;12910;57.690;11.974;2022-08-21T01:42:13;100459.31;;;16.85;100.00
24825;BME280;12910;57.690;11.974;2022-08-21T01:44:40;100451.59;;;16.78;100.00
24825;BME280;12910;57.690;11.974;2022-08-21T01:47:08;100460.19;;;16.83;100.00
24825;BME280;12910;57.690;11.974;2022-08-21T01:49:35;100454.13;;;16.85;100.00
24825;BME280;12910;57.690;11.974;2022-08-21T01:52:02;100445.56;;;16.79;100.00
24825;BME280;12910;57.690;11.974;2022-08-21T01:54:29;100455.84;;;16.86;100.00
24825;BME280;12910;57.690;11.974;2022-08-21T01:56:55;100452.38;;;16.87;100.00
24825;BME280;12910;57.690;11.974;2022-08-21T01:59:22;100445.50;;;16.86;100.00
24825;BME280;12910;57.690;11.974;2022-08-21T02:01:48;100460.13;;;16.88;100.00
24825;BME280;12910;57.690;11.974;2022-08-21T02:04:14;100453.25;;;16.84;100.00
24825;BME280;12910;57.690;11.974;2022-08-21T02:06:39;100454.09;;;16.88;100.00
24825;BME280;12910;57.690;11.974;2022-08-21T02:09:06;100454.09;;;16.86;100.00
24825;BME280;12910;57.690;11.974;2022-08-21T02:11:33;100454.16;;;16.81;100.00
24825;BME280;12910;57.690;11.974;2022-08-21T02:13:58;100448.97;;;16.81;100.00
24825;BME280;12910;57.690;11.974;2022-08-21T02:16:24;100450.69;;;16.82;100.00
24825;BME280;12910;57.690;11.974;2022-08-21T02:18:49;100447.34;;;16.74;100.00
24825;BME280;12910;57.690;11.974;2022-08-21T02:21:15;100447.34;;;16.74;100.00
24825;BME280;12910;57.690;11.974;2022-08-21T02:23:40;100439.63;;;16.73;100.00
24825;BME280;12910;57.690;11.974;2022-08-21T02:26:07;100442.16;;;16.76;100.00
24825;BME280;12910;57.690;11.974;2022-08-21T02:28:33;100431.81;;;16.74;100.00
24825;BME280;12910;57.690;11.974;2022-08-21T02:30:59;100427.53;;;16.70;100.00
24825;BME280;12910;57.690;11.974;2022-08-21T02:33:26;100430.97;;;16.72;100.00
24825;BME280;12910;57.690;11.974;2022-08-21T02:35:52;100439.59;;;16.74;100.00
24825;BME280;12910;57.690;11.974;2022-08-21T02:38:22;100416.31;;;16.71;100.00
24825;BME280;12910;57.690;11.974;2022-08-21T02:40:50;100431.81;;;16.74;100.00
24825;BME280;12910;57.690;11.974;2022-08-21T02:43:17;100430.13;;;16.72;100.00
24825;BME280;12910;57.690;11.974;2022-08-21T02:45:44;100423.31;;;16.66;100.00
24825;BME280;12910;57.690;11.974;2022-08-21T02:48:12;100425.84;;;16.67;100.00
24825;BME280;12910;57.690;11.974;2022-08-21T02:50:41;100425.03;;;16.64;100.00
24825;BME280;12910;57.690;11.974;2022-08-21T02:53:09;100411.31;;;16.59;100.00
24825;BME280;12910;57.690;11.974;2022-08-21T02:55:36;100416.50;;;16.59;100.00
24825;BME280;12910;57.690;11.974;2022-08-21T02:58:04;100419.09;;;16.59;100.00
24825;BME280;12910;57.690;11.974;2022-08-21T03:00:30;100423.38;;;16.58;100.00
24825;BME280;12910;57.690;11.974;2022-08-21T03:02:57;100419.91;;;16.61;100.00
24825;BME280;12910;57.690;11.974;2022-08-21T03:05:24;100419.91;;;16.61;100.00
24825;BME280;12910;57.690;11.974;2022-08-21T03:07:50;100419.94;;;16.58;100.00
24825;BME280;12910;57.690;11.974;2022-08-21T03:10:17;100424.28;;;16.56;100.00
24825;BME280;12910;57.690;11.974;2022-08-21T03:12:45;100414.81;;;16.55;100.00
24825;BME280;12910;57.690;11.974;2022-08-21T03:15:16;100407.94;;;16.52;100.00
24825;BME280;12910;57.690;11.974;2022-08-21T03:17:43;100411.38;;;16.54;100.00
24825;BME280;12910;57.690;11.974;2022-08-21T03:20:09;100390.78;;;16.43;100.00
24825;BME280;12910;57.690;11.974;2022-08-21T03:22:35;100405.31;;;16.54;100.00
24825;BME280;12910;57.690;11.974;2022-08-21T03:25:00;100407.06;;;16.53;100.00
24825;BME280;12910;57.690;11.974;2022-08-21T03:27:27;100404.53;;;16.48;100.00
24825;BME280;12910;57.690;11.974;2022-08-21T03:29:54;100398.53;;;16.43;100.00
24825;BME280;12910;57.690;11.974;2022-08-21T03:32:20;100394.31;;;16.39;100.00
24825;BME280;12910;57.690;11.974;2022-08-21T03:34:46;100397.69;;;16.41;100.00
24825;BME280;12910;57.690;11.974;2022-08-21T03:37:13;100386.53;;;16.38;100.00
24825;BME280;12910;57.690;11.974;2022-08-21T03:39:39;100392.63;;;16.35;100.00
24825;BME280;12910;57.690;11.974;2022-08-21T03:42:06;100385.81;;;16.28;100.00
24825;BME280;12910;57.690;11.974;2022-08-21T03:44:32;100393.53;;;16.29;100.00
24825;BME280;12910;57.690;11.974;2022-08-21T03:46:58;100397.94;;;16.21;100.00
24825;BME280;12910;57.690;11.974;2022-08-21T03:49:24;100403.13;;;16.19;100.00
24825;BME280;12910;57.690;11.974;2022-08-21T03:51:50;100389.47;;;16.08;100.00
24825;BME280;12910;57.690;11.974;2022-08-21T03:54:15;100396.38;;;16.06;100.00
24825;BME280;12910;57.690;11.974;2022-08-21T03:56:41;100404.16;;;16.03;100.00
24825;BME280;12910;57.690;11.974;2022-08-21T03:59:06;100396.44;;;15.98;100.00
24825;BME280;12910;57.690;11.974;2022-08-21T04:01:32;100403.34;;;15.98;100.00
24825;BME280;12910;57.690;11.974;2022-08-21T04:03:57;100399.94;;;15.93;100.00
24825;BME280;12910;57.690;11.974;2022-08-21T04:06:23;100402.50;;;15.93;100.00
24825;BME280;12910;57.690;11.974;2022-08-21T04:08:49;100406.03;;;15.88;100.00
24825;BME280;12910;57.690;11.974;2022-08-21T04:11:14;100404.34;;;15.80;100.00
24825;BME280;12910;57.690;11.974;2022-08-21T04:13:40;100392.38;;;15.71;100.00
24825;BME280;12910;57.690;11.974;2022-08-21T04:16:06;100398.34;;;15.73;100.00
24825;BME280;12910;57.690;11.974;2022-08-21T04:18:31;100410.41;;;15.74;100.00
24825;BME280;12910;57.690;11.974;2022-08-21T04:20:57;100394.97;;;15.68;100.00
24825;BME280;12910;57.690;11.974;2022-08-21T04:23:24;100410.47;;;15.71;100.00
24825;BME280;12910;57.690;11.974;2022-08-21T04:25:52;100416.44;;;15.73;100.00
24825;BME280;12910;57.690;11.974;2022-08-21T04:28:18;100406.22;;;15.61;100.00
24825;BME280;12910;57.690;11.974;2022-08-21T04:30:44;100424.19;;;15.73;100.00
24825;BME280;12910;57.690;11.974;2022-08-21T04:33:09;100420.81;;;15.68;100.00
24825;BME280;12910;57.690;11.974;2022-08-21T04:35:35;100426.88;;;15.65;100.00
24825;BME280;12910;57.690;11.974;2022-08-21T04:38:00;100419.16;;;15.61;100.00
24825;BME280;12910;57.690;11.974;2022-08-21T04:40:27;100423.44;;;15.63;100.00
24825;BME280;12910;57.690;11.974;2022-08-21T04:43:00;100425.19;;;15.60;100.00
24825;BME280;12910;57.690;11.974;2022-08-21T04:45:35;100420.84;;;15.63;100.00
24825;BME280;12910;57.690;11.974;2022-08-21T04:48:03;100419.94;;;15.66;100.00
24825;BME280;12910;57.690;11.974;2022-08-21T04:50:52;100420.78;;;15.71;100.00
24825;BME280;12910;57.690;11.974;2022-08-21T04:56:14;100404.47;;;15.67;100.00
24825;BME280;12910;57.690;11.974;2022-08-21T04:58:41;100406.13;;;15.74;100.00
24825;BME280;12910;57.690;11.974;2022-08-21T05:01:13;100411.22;;;15.81;100.00
24825;BME280;12910;57.690;11.974;2022-08-21T05:03:40;100412.94;;;15.82;100.00
24825;BME280;12910;57.690;11.974;2022-08-21T05:06:08;100412.06;;;15.84;100.00
24825;BME280;12910;57.690;11.974;2022-08-21T05:08:36;100424.13;;;15.88;100.00
24825;BME280;12910;57.690;11.974;2022-08-21T05:11:02;100425.84;;;15.89;100.00
24825;BME280;12910;57.690;11.974;2022-08-21T05:13:28;100420.66;;;15.89;100.00
24825;BME280;12910;57.690;11.974;2022-08-21T05:15:54;100418.03;;;15.94;100.00
24825;BME280;12910;57.690;11.974;2022-08-21T05:18:20;100414.63;;;15.89;100.00
24825;BME280;12910;57.690;11.974;2022-08-21T05:20:46;100410.31;;;15.89;100.00
24825;BME280;12910;57.690;11.974;2022-08-21T05:23:13;100419.75;;;15.94;100.00
24825;BME280;12910;57.690;11.974;2022-08-21T05:25:39;100418.94;;;15.92;100.00
24825;BME280;12910;57.690;11.974;2022-08-21T05:28:05;100419.75;;;15.95;100.00
24825;BME280;12910;57.690;11.974;2022-08-21T05:30:32;100408.50;;;15.98;100.00
24825;BME280;12910;57.690;11.974;2022-08-21T05:32:59;100418.78;;;16.06;100.00
24825;BME280;12910;57.690;11.974;2022-08-21T05:35:25;100415.34;;;16.05;100.00
24825;BME280;12910;57.690;11.974;2022-08-21T05:37:51;100422.22;;;16.06;100.00
24825;BME280;12910;57.690;11.974;2022-08-21T05:40:16;100417.13;;;16.00;100.00
24825;BME280;12910;57.690;11.974;2022-08-21T05:42:43;100422.25;;;16.04;100.00
24825;BME280;12910;57.690;11.974;2022-08-21T05:45:09;100421.38;;;16.04;100.00
24825;BME280;12910;57.690;11.974;2022-08-21T05:47:34;100415.38;;;16.00;100.00
24825;BME280;12910;57.690;11.974;2022-08-21T05:49:59;100414.56;;;15.95;100.00
24825;BME280;12910;57.690;11.974;2022-08-21T05:52:25;100420.56;;;15.99;100.00
24825;BME280;12910;57.690;11.974;2022-08-21T05:54:50;100428.31;;;16.00;100.00
24825;BME280;12910;57.690;11.974;2022-08-21T05:57:19;100425.75;;;15.96;100.00
24825;BME280;12910;57.690;11.974;2022-08-21T05:59:44;100427.53;;;15.91;100.00
24825;BME280;12910;57.690;11.974;2022-08-21T06:02:10;100431.78;;;15.98;100.00
24825;BME280;12910;57.690;11.974;2022-08-21T06:04:37;100435.16;;;16.03;100.00
24825;BME280;12910;57.690;11.974;2022-08-21T06:07:03;100429.09;;;16.07;100.00
24825;BME280;12910;57.690;11.974;2022-08-21T06:09:29;100419.63;;;16.09;100.00
24825;BME280;12910;57.690;11.974;2022-08-21T06:11:54;100423.91;;;16.10;100.00
24825;BME280;12910;57.690;11.974;2022-08-21T06:14:20;100422.13;;;16.15;100.00
24825;BME280;12910;57.690;11.974;2022-08-21T06:16:45;100429.88;;;16.18;100.00
24825;BME280;12910;57.690;11.974;2022-08-21T06:19:10;100420.38;;;16.19;100.00
24825;BME280;12910;57.690;11.974;2022-08-21T06:21:36;100425.44;;;16.30;100.00
24825;BME280;12910;57.690;11.974;2022-08-21T06:24:02;100433.13;;;16.36;100.00
24825;BME280;12910;57.690;11.974;2022-08-21T06:26:27;100420.13;;;16.42;100.00
24825;BME280;12910;57.690;11.974;2022-08-21T06:28:54;100424.34;;;16.51;100.00
24825;BME280;12910;57.690;11.974;2022-08-21T06:31:22;100424.25;;;16.59;100.00
24825;BME280;12910;57.690;11.974;2022-08-21T06:33:49;100429.28;;;16.70;100.00
24825;BME280;12910;57.690;11.974;2022-08-21T06:36:15;100426.56;;;16.80;100.00
24825;BME280;12910;57.690;11.974;2022-08-21T06:38:41;100421.25;;;16.90;100.00
24825;BME280;12910;57.690;11.974;2022-08-21T06:41:07;100422.03;;;16.98;100.00
24825;BME280;12910;57.690;11.974;2022-08-21T06:43:32;100416.72;;;17.09;100.00
24825;BME280;12910;57.690;11.974;2022-08-21T06:45:58;100407.97;;;17.18;100.00
24825;BME280;12910;57.690;11.974;2022-08-21T06:48:23;100407.88;;;17.24;100.00
24825;BME280;12910;57.690;11.974;2022-08-21T06:50:49;100414.69;;;17.31;100.00
24825;BME280;12910;57.690;11.974;2022-08-21T06:53:17;100418.09;;;17.33;100.00
24825;BME280;12910;57.690;11.974;2022-08-21T06:55:44;100404.31;;;17.31;100.00
24825;BME280;12910;57.690;11.974;2022-08-21T06:58:10;100403.44;;;17.32;100.00
24825;BME280;12910;57.690;11.974;2022-08-21T07:00:39;100405.88;;;17.41;100.00
24825;BME280;12910;57.690;11.974;2022-08-21T07:03:05;100401.44;;;17.50;100.00
24825;BME280;12910;57.690;11.974;2022-08-21T07:05:30;100402.25;;;17.53;100.00
24825;BME280;12910;57.690;11.974;2022-08-21T07:07:56;100409.09;;;17.57;100.00
24825;BME280;12910;57.690;11.974;2022-08-21T07:10:24;100403.00;;;17.60;100.00
24825;BME280;12910;57.690;11.974;2022-08-21T07:12:50;100410.66;;;17.68;100.00
24825;BME280;12910;57.690;11.974;2022-08-21T07:15:16;100405.41;;;17.71;100.00
24825;BME280;12910;57.690;11.974;2022-08-21T07:17:41;100403.69;;;17.70;100.00
24825;BME280;12910;57.690;11.974;2022-08-21T07:20:07;100409.78;;;17.67;100.00
24825;BME280;12910;57.690;11.974;2022-08-21T07:22:32;100398.63;;;17.64;100.00
24825;BME280;12910;57.690;11.974;2022-08-21T07:25:00;100408.06;;;17.66;100.00
24825;BME280;12910;57.690;11.974;2022-08-21T07:27:25;100406.34;;;17.65;100.00
24825;BME280;12910;57.690;11.974;2022-08-21T07:29:51;100409.84;;;17.64;100.00
24825;BME280;12910;57.690;11.974;2022-08-21T07:32:17;100407.22;;;17.66;100.00
24825;BME280;12910;57.690;11.974;2022-08-21T07:34:42;100410.72;;;17.63;100.00
24825;BME280;12910;57.690;11.974;2022-08-21T07:37:08;100394.47;;;17.55;100.00
24825;BME280;12910;57.690;11.974;2022-08-21T07:39:33;100396.22;;;17.53;100.00
24825;BME280;12910;57.690;11.974;2022-08-21T07:41:58;100406.50;;;17.56;100.00
24825;BME280;12910;57.690;11.974;2022-08-21T07:44:24;100409.16;;;17.53;100.00
24825;BME280;12910;57.690;11.974;2022-08-21T07:46:49;100408.22;;;17.57;100.00
24825;BME280;12910;57.690;11.974;2022-08-21T07:49:15;100395.25;;;17.58;100.00
24825;BME280;12910;57.690;11.974;2022-08-21T07:51:40;100398.56;;;17.67;100.00
24825;BME280;12910;57.690;11.974;2022-08-21T07:54:05;100402.00;;;17.69;100.00
24825;BME280;12910;57.690;11.974;2022-08-21T07:56:31;100401.13;;;17.68;100.00
24825;BME280;12910;57.690;11.974;2022-08-21T07:58:57;100397.59;;;17.74;100.00
24825;BME280;12910;57.690;11.974;2022-08-21T08:01:23;100397.47;;;17.82;100.00
24825;BME280;12910;57.690;11.974;2022-08-21T08:03:49;100403.44;;;17.85;100.00
24825;BME280;12910;57.690;11.974;2022-08-21T08:06:14;100400.94;;;17.81;100.00
24825;BME280;12910;57.690;11.974;2022-08-21T08:08:42;100391.47;;;17.78;100.00
24825;BME280;12910;57.690;11.974;2022-08-21T08:11:09;100396.75;;;17.73;100.00
24825;BME280;12910;57.690;11.974;2022-08-21T08:13:42;100392.47;;;17.69;100.00
24825;BME280;12910;57.690;11.974;2022-08-21T08:16:08;100388.22;;;17.67;100.00
24825;BME280;12910;57.690;11.974;2022-08-21T08:18:33;100402.88;;;17.68;100.00
24825;BME280;12910;57.690;11.974;2022-08-21T08:20:59;100397.63;;;17.72;100.00
24825;BME280;12910;57.690;11.974;2022-08-21T08:23:24;100383.75;;;17.75;100.00
24825;BME280;12910;57.690;11.974;2022-08-21T08:25:50;100389.56;;;17.88;100.00
24825;BME280;12910;57.690;11.974;2022-08-21T08:28:15;100385.22;;;17.90;100.00
24825;BME280;12910;57.690;11.974;2022-08-21T08:30:41;100382.53;;;17.95;100.00
24825;BME280;12910;57.690;11.974;2022-08-21T08:33:07;100379.00;;;17.99;100.00
24825;BME280;12910;57.690;11.974;2022-08-21T08:35:33;100391.13;;;17.98;100.00
24825;BME280;12910;57.690;11.974;2022-08-21T08:37:59;100389.47;;;17.92;100.00
24825;BME280;12910;57.690;11.974;2022-08-21T08:40:47;100385.16;;;17.93;100.00
24825;BME280;12910;57.690;11.974;2022-08-21T08:43:17;100376.47;;;17.97;100.00
24825;BME280;12910;57.690;11.974;2022-08-21T08:45:46;100372.16;;;17.96;100.00
24825;BME280;12910;57.690;11.974;2022-08-21T08:48:26;100376.41;;;17.99;100.00
24825;BME280;12910;57.690;11.974;2022-08-21T08:50:57;100374.66;;;18.02;100.00
24825;BME280;12910;57.690;11.974;2022-08-21T08:53:30;100377.91;;;18.12;100.00
24825;BME280;12910;57.690;11.974;2022-08-21T08:55:57;100374.34;;;18.18;100.00
24825;BME280;12910;57.690;11.974;2022-08-21T08:58:33;100372.63;;;18.17;100.00
24825;BME280;12910;57.690;11.974;2022-08-21T09:01:12;100372.59;;;18.20;100.00
24825;BME280;12910;57.690;11.974;2022-08-21T09:03:40;100377.78;;;18.20;100.00
24825;BME280;12910;57.690;11.974;2022-08-21T09:06:56;100373.44;;;18.20;100.00
24825;BME280;12910;57.690;11.974;2022-08-21T09:10:11;100374.31;;;18.19;100.00
24825;BME280;12910;57.690;11.974;2022-08-21T09:13:04;100372.59;;;18.18;100.00
24825;BME280;12910;57.690;11.974;2022-08-21T09:15:40;100370.69;;;18.28;100.00
24825;BME280;12910;57.690;11.974;2022-08-21T09:18:33;100377.59;;;18.29;100.00
24825;BME280;12910;57.690;11.974;2022-08-21T09:21:23;100373.19;;;18.33;100.00
24825;BME280;12910;57.690;11.974;2022-08-21T09:24:08;100373.97;;;18.36;100.00
24825;BME280;12910;57.690;11.974;2022-08-21T09:26:57;100373.03;;;18.41;100.00
24825;BME280;12910;57.690;11.974;2022-08-21T09:29:29;100371.34;;;18.40;100.00
24825;BME280;12910;57.690;11.974;2022-08-21T09:31:56;100368.75;;;18.40;100.00
24825;BME280;12910;57.690;11.974;2022-08-21T09:34:28;100366.69;;;18.56;100.00
24825;BME280;12910;57.690;11.974;2022-08-21T09:36:54;100365.56;;;18.66;100.00
24825;BME280;12910;57.690;11.974;2022-08-21T09:39:30;100357.78;;;18.67;100.00
24825;BME280;12910;57.690;11.974;2022-08-21T09:41:58;100370.66;;;18.72;100.00
24825;BME280;12910;57.690;11.974;2022-08-21T09:44:29;100363.66;;;18.76;100.00
24825;BME280;12910;57.690;11.974;2022-08-21T09:46:56;100369.66;;;18.78;100.00
24825;BME280;12910;57.690;11.974;2022-08-21T09:49:47;100354.09;;;18.78;100.00
24825;BME280;12910;57.690;11.974;2022-08-21T09:52:20;100357.41;;;18.83;100.00
24825;BME280;12910;57.690;11.974;2022-08-21T09:54:51;100358.06;;;18.94;100.00
24825;BME280;12910;57.690;11.974;2022-08-21T09:57:28;100367.50;;;18.98;100.00
24825;BME280;12910;57.690;11.974;2022-08-21T10:00:23;100353.66;;;18.99;100.00
24825;BME280;12910;57.690;11.974;2022-08-21T10:02:49;100355.31;;;19.02;100.00
24825;BME280;12910;57.690;11.974;2022-08-21T10:05:25;100358.84;;;18.99;100.00
24825;BME280;12910;57.690;11.974;2022-08-21T10:07:51;100352.88;;;18.94;100.00
24825;BME280;12910;57.690;11.974;2022-08-21T10:10:23;100332.94;;;18.96;100.00
24825;BME280;12910;57.690;11.974;2022-08-21T10:18:35;100350.13;;;19.00;100.00
24825;BME280;12910;57.690;11.974;2022-08-21T10:21:25;100338.75;;;19.06;100.00
24825;BME280;12910;57.690;11.974;2022-08-21T10:40:26;100330.00;;;19.10;100.00
24825;BME280;12910;57.690;11.974;2022-08-21T10:46:01;100330.78;;;19.14;100.00
24825;BME280;12910;57.690;11.974;2022-08-21T10:48:39;100336.84;;;19.13;100.00
24825;BME280;12910;57.690;11.974;2022-08-21T10:56:33;100325.59;;;19.14;100.00
24825;BME280;12910;57.690;11.974;2022-08-21T11:01:54;100331.38;;;19.25;100.00
24825;BME280;12910;57.690;11.974;2022-08-21T11:04:31;100326.78;;;19.35;100.00
24825;BME280;12910;57.690;11.974;2022-08-21T11:07:22;100331.09;;;19.38;100.00
24825;BME280;12910;57.690;11.974;2022-08-21T11:09:51;100337.22;;;19.34;100.00
24825;BME280;12910;57.690;11.974;2022-08-21T11:12:24;100340.78;;;19.31;100.00
24825;BME280;12910;57.690;11.974;2022-08-21T11:17:52;100339.66;;;19.40;100.00
24825;BME280;12910;57.690;11.974;2022-08-21T11:22:58;100337.22;;;19.34;100.00
24825;BME280;12910;57.690;11.974;2022-08-21T11:25:37;100361.28;;;19.42;100.00
24825;BME280;12910;57.690;11.974;2022-08-21T11:28:30;100355.13;;;19.46;100.00
24825;BME280;12910;57.690;11.974;2022-08-21T11:36:36;100353.31;;;19.50;100.00
24825;BME280;12910;57.690;11.974;2022-08-21T11:44:43;100351.25;;;19.62;100.00
24825;BME280;12910;57.690;11.974;2022-08-21T11:47:19;100344.03;;;19.72;100.00
24825;BME280;12910;57.690;11.974;2022-08-21T11:50:18;100350.03;;;19.76;100.00
24825;BME280;12910;57.690;11.974;2022-08-21T11:52:57;100347.56;;;19.71;100.00
24825;BME280;12910;57.690;11.974;2022-08-21T11:55:34;100355.94;;;19.81;100.00
24825;BME280;12910;57.690;11.974;2022-08-21T11:58:07;100354.16;;;19.83;100.00
24825;BME280;12910;57.690;11.974;2022-08-21T12:00:39;100349.03;;;19.80;100.00
24825;BME280;12910;57.690;11.974;2022-08-21T12:03:20;100347.44;;;19.74;100.00
24825;BME280;12910;57.690;11.974;2022-08-21T12:05:59;100347.22;;;19.85;100.00
24825;BME280;12910;57.690;11.974;2022-08-21T12:08:34;100343.50;;;19.94;100.00
24825;BME280;12910;57.690;11.974;2022-08-21T12:11:09;100345.72;;;20.08;100.00
24825;BME280;12910;57.690;11.974;2022-08-21T12:13:51;100349.84;;;20.15;100.00
24825;BME280;12910;57.690;11.974;2022-08-21T12:16:30;100349.81;;;20.17;100.00
24825;BME280;12910;57.690;11.974;2022-08-21T12:19:11;100346.91;;;20.28;100.00
24825;BME280;12910;57.690;11.974;2022-08-21T12:24:38;100340.09;;;20.23;100.00
24825;BME280;12910;57.690;11.974;2022-08-21T12:29:48;100332.31;;;20.22;100.00
24825;BME280;12910;57.690;11.974;2022-08-21T12:35:19;100335.38;;;20.36;100.00
24825;BME280;12910;57.690;11.974;2022-08-21T12:37:57;100338.13;;;20.32;100.00
24825;BME280;12910;57.690;11.974;2022-08-21T12:40:40;100337.63;;;20.19;100.00
24825;BME280;12910;57.690;11.974;2022-08-21T12:43:13;100343.94;;;20.10;100.00
24825;BME280;12910;57.690;11.974;2022-08-21T12:45:43;100339.75;;;20.04;100.00
24825;BME280;12910;57.690;11.974;2022-08-21T12:51:23;100338.16;;;19.99;100.00
24825;BME280;12910;57.690;11.974;2022-08-21T12:53:56;100337.47;;;19.93;100.00
24825;BME280;12910;57.690;11.974;2022-08-21T12:56:28;100331.56;;;19.87;100.00
24825;BME280;12910;57.690;11.974;2022-08-21T12:59:04;100338.56;;;19.83;100.00
24825;BME280;12910;57.690;11.974;2022-08-21T13:03:58;100324.09;;;19.73;100.00
24825;BME280;12910;57.690;11.974;2022-08-21T13:06:29;100326.78;;;19.70;100.00
24825;BME280;12910;57.690;11.974;2022-08-21T13:09:02;100323.34;;;19.69;100.00
24825;BME280;12910;57.690;11.974;2022-08-21T13:11:29;100317.25;;;19.70;100.00
24825;BME280;12910;57.690;11.974;2022-08-21T13:13:56;100300.06;;;19.65;100.00
24825;BME280;12910;57.690;11.974;2022-08-21T13:16:26;100309.97;;;19.82;100.00
24825;BME280;12910;57.690;11.974;2022-08-21T13:18:57;100308.03;;;19.91;100.00
24825;BME280;12910;57.690;11.974;2022-08-21T13:21:28;100298.19;;;20.01;100.00
24825;BME280;12910;57.690;11.974;2022-08-21T13:23:53;100292.38;;;19.93;100.00
24825;BME280;12910;57.690;11.974;2022-08-21T13:26:21;100307.13;;;19.92;100.00
24825;BME280;12910;57.690;11.974;2022-08-21T13:28:48;100299.47;;;19.86;100.00
24825;BME280;12910;57.690;11.974;2022-08-21T13:31:22;100308.09;;;19.88;100.00
24825;BME280;12910;57.690;11.974;2022-08-21T13:33:49;100301.88;;;19.94;100.00
24825;BME280;12910;57.690;11.974;2022-08-21T13:36:24;100301.84;;;19.96;100.00
24825;BME280;12910;57.690;11.974;2022-08-21T13:38:51;100297.34;;;20.01;100.00
24825;BME280;12910;57.690;11.974;2022-08-21T13:41:25;100307.09;;;19.94;100.00
24825;BME280;12910;57.690;11.974;2022-08-21T13:44:22;100291.59;;;19.89;100.00
24825;BME280;12910;57.690;11.974;2022-08-21T13:46:48;100284.75;;;19.87;100.00
24825;BME280;12910;57.690;11.974;2022-08-21T13:49:17;100280.38;;;19.87;100.00